METAR Data
IDs: Format: Raw Decoded Include TAF

Data at: 1729 UTC 03 Jun 2020

KPOF 031653Z AUTO 19009KT 10SM CLR 28/20 A2996 RMK AO2 SLP141 T02830200
KPOF 031553Z AUTO 18006KT 10SM CLR 28/20 A2997 RMK AO2 SLP145 T02780200
KPOF 031453Z AUTO 28005KT 10SM CLR 27/19 A2998 RMK AO2 SLP146 T02670189 58003
KPOF 031353Z AUTO 20008KT 10SM CLR 24/19 A2999 RMK AO2 SLP150 T02390189
KPOF 031253Z AUTO 21004KT 10SM CLR 22/18 A3000 RMK AO2 SLP154 T02170183
KPOF 031153Z AUTO 21003KT 10SM CLR 20/17 A2998 RMK AO2 SLP149 T02000172 10211 20178 56000
KPOF 031053Z AUTO 19003KT 10SM CLR 18/16 A2998 RMK AO2 SLP149 T01830161
KPOF 030953Z AUTO 00000KT 10SM CLR 18/17 A2998 RMK AO2 SLP149 T01830167
KPOF 030853Z AUTO 22003KT 10SM CLR 19/16 A2999 RMK AO2 SLP149 T01890161 56008
KPOF 030753Z AUTO 00000KT 10SM CLR 19/16 A2999 RMK AO2 SLP152 T01940161
KPOF 030653Z AUTO 00000KT 10SM CLR 20/16 A3000 RMK AO2 SLP153 T02000161
KPOF 030553Z AUTO 27003KT 10SM CLR 21/16 A3001 RMK AO2 SLP157 T02110161 10294 20206 403110144 55002
KPOF 030453Z AUTO 21003KT 10SM CLR 22/16 A3000 RMK AO2 SLP156 T02220161
KPOF 030353Z AUTO 22003KT 10SM CLR 23/16 A3002 RMK AO2 SLP159 T02330161
KPOF 030253Z AUTO 21004KT 10SM CLR 24/16 A3002 RMK AO2 SLP160 T02390161 53005
KPOF 030153Z AUTO 21004KT 10SM CLR 24/16 A3001 RMK AO2 SLP156 T02390156
KPOF 030053Z AUTO 23005KT 10SM CLR 27/14 A3000 RMK AO2 SLP155 T02720144
KPOF 022353Z AUTO 25006KT 10SM CLR 29/14 A3000 RMK AO2 SLP155 T02940139 10311 20283 56011
KPOF 022253Z AUTO 24007KT 10SM CLR 31/14 A3000 RMK AO2 SLP156 T03060144
KPOF 022153Z AUTO 23006KT 10SM CLR 31/13 A3002 RMK AO2 SLP160 T03060133
KPOF 022053Z AUTO VRB06KT 10SM CLR 31/13 A3003 RMK AO2 SLP167 T03060133 58017
KPOF 021953Z AUTO 23008KT 10SM CLR 29/14 A3005 RMK AO2 SLP172 T02940139
KPOF 021853Z AUTO 21006KT 10SM CLR 29/14 A3007 RMK AO2 SLP178 T02940144
KPOF 021753Z AUTO 23007KT 10SM CLR 29/15 A3009 RMK AO2 SLP183 T02890150 10289 20161 57013
KPOF 021653Z AUTO 24008KT 10SM CLR 28/13 A3010 RMK AO2 SLP188 T02780133
KPOF 021553Z AUTO 21007KT 10SM CLR 27/15 A3011 RMK AO2 SLP193 T02670150
KPOF 021453Z AUTO 22007KT 10SM CLR 25/15 A3012 RMK AO2 SLP197 T02500150 50001
KPOF 021353Z AUTO 00000KT 10SM CLR 23/15 A3013 RMK AO2 SLP200 T02280150
KPOF 021253Z AUTO 00000KT 10SM CLR 19/14 A3013 RMK AO2 SLP198 T01940144
KPOF 021153Z AUTO 00000KT 10SM CLR 16/13 A3012 RMK AO2 SLP196 T01610133 10172 20144 53010
KPOF 021053Z AUTO 00000KT 10SM CLR 14/13 A3011 RMK AO2 SLP191 T01440128
KPOF 020953Z AUTO 00000KT 10SM CLR 15/13 A3010 RMK AO2 SLP187 T01500133
KPOF 020853Z AUTO 36004KT 10SM CLR 15/14 A3009 RMK AO2 SLP186 T01500139 55005
KPOF 020753Z AUTO 00000KT 10SM CLR 16/14 A3009 RMK AO2 SLP185 T01610139
KPOF 020653Z AUTO 00000KT 10SM CLR 17/15 A3010 RMK AO2 SLP187 T01670150
KPOF 020553Z AUTO 00000KT 10SM CLR 17/16 A3011 RMK AO2 SLP191 T01720156 10278 20172 402940150 58003